createdAt,value
2016-12-07T00:00:07.729Z,87.67
2016-12-07T00:01:08.313Z,87.38
2016-12-07T00:02:08.310Z,87.17
2016-12-07T00:03:07.837Z,86.79
2016-12-07T00:04:08.427Z,85.79
2016-12-07T00:05:08.029Z,85.11
2016-12-07T00:06:07.552Z,85.88
2016-12-07T00:07:08.120Z,87.17
2016-12-07T00:08:13.359Z,87.04
2016-12-07T00:09:08.020Z,86.90
2016-12-07T00:10:07.582Z,86.46
2016-12-07T00:11:08.170Z,86.32
2016-12-07T00:12:08.684Z,86.52
2016-12-07T00:13:08.522Z,86.90
2016-12-07T00:14:08.254Z,86.34
2016-12-07T00:15:07.805Z,86.55
2016-12-07T00:16:08.655Z,86.64
2016-12-07T00:17:08.445Z,86.34
2016-12-07T00:18:09.525Z,86.69
2016-12-07T00:19:08.123Z,86.31
2016-12-07T00:20:07.683Z,86.68
2016-12-07T00:21:08.438Z,87.14
2016-12-07T00:22:08.089Z,86.24
2016-12-07T00:23:07.733Z,86.85
2016-12-07T00:25:07.988Z,85.95
2016-12-07T00:26:07.648Z,86.44
2016-12-07T00:27:08.336Z,85.79
2016-12-07T00:28:08.057Z,87.04
2016-12-07T00:29:07.814Z,87.13
2016-12-07T00:30:08.571Z,86.67
2016-12-07T00:31:08.299Z,85.97
2016-12-07T00:32:07.918Z,86.18
2016-12-07T00:33:07.718Z,86.88
2016-12-07T00:34:08.462Z,87.40
2016-12-07T00:35:09.643Z,87.68
2016-12-07T00:38:07.802Z,86.64
2016-12-07T00:39:09.355Z,86.62
2016-12-07T00:40:07.891Z,86.33
2016-12-07T00:41:08.501Z,85.70
2016-12-07T00:42:08.128Z,86.16
2016-12-07T00:43:07.755Z,86.23
2016-12-07T00:44:08.455Z,86.62
2016-12-07T00:45:08.120Z,86.44
2016-12-07T00:46:07.597Z,86.59
2016-12-07T00:47:08.216Z,86.52
2016-12-07T00:48:07.719Z,86.34
2016-12-07T00:49:09.176Z,86.46
2016-12-07T00:50:07.715Z,86.37
2016-12-07T00:51:08.297Z,86.78
2016-12-07T00:52:07.890Z,86.66
2016-12-07T00:53:09.008Z,86.69
2016-12-07T00:54:08.518Z,86.83
2016-12-07T00:55:08.281Z,86.54
2016-12-07T00:56:07.958Z,86.76
2016-12-07T00:57:07.510Z,87.52
2016-12-07T00:59:08.259Z,87.87
2016-12-07T01:00:08.031Z,87.75
2016-12-07T01:03:08.156Z,87.82
2016-12-07T01:11:09.255Z,87.21
2016-12-07T01:19:09.102Z,86.94
2016-12-07T01:24:08.226Z,86.67
2016-12-07T01:25:07.559Z,86.48
2016-12-07T01:30:28.460Z,87.94
2016-12-07T01:31:08.415Z,86.97
2016-12-07T01:35:08.202Z,86.95
2016-12-07T01:37:08.072Z,87.65
2016-12-07T01:38:07.874Z,87.99
2016-12-07T01:47:09.016Z,86.40
2016-12-07T01:48:07.641Z,87.09
2016-12-07T01:50:08.467Z,86.99
2016-12-07T01:52:09.575Z,87.80
2016-12-07T01:53:09.059Z,87.99
2016-12-07T01:55:08.026Z,88.26
2016-12-07T01:56:07.837Z,88.77
2016-12-07T01:57:08.387Z,89.24
2016-12-07T02:00:09.209Z,89.11
2016-12-07T02:03:07.623Z,89.49
2016-12-07T02:07:08.327Z,89.48
2016-12-07T02:08:08.570Z,89.54
2016-12-07T02:09:08.202Z,90.06
2016-12-07T02:10:08.382Z,89.44
2016-12-07T02:11:08.081Z,88.80
2016-12-07T02:12:07.580Z,88.21
2016-12-07T02:13:08.292Z,88.62
2016-12-07T02:14:15.120Z,88.22
2016-12-07T02:15:08.015Z,88.79
2016-12-07T02:17:07.952Z,89.39
2016-12-07T02:18:20.743Z,89.24
2016-12-07T02:19:08.535Z,89.13
2016-12-07T02:20:08.436Z,88.82
2016-12-07T02:21:08.107Z,88.49
2016-12-07T02:22:07.867Z,87.40
2016-12-07T02:23:08.676Z,87.89
2016-12-07T02:24:09.233Z,87.94
2016-12-07T02:25:08.225Z,87.38
2016-12-07T02:26:07.887Z,87.44
2016-12-07T02:27:10.097Z,87.76
2016-12-07T02:28:07.893Z,87.22
2016-12-07T02:29:08.818Z,88.04
2016-12-07T02:30:08.578Z,88.35
2016-12-07T02:31:08.579Z,87.90
2016-12-07T02:32:09.954Z,88.13
2016-12-07T02:33:07.640Z,87.83
2016-12-07T02:34:08.761Z,88.71
2016-12-07T02:35:08.568Z,87.87
2016-12-07T02:37:08.392Z,88.64
2016-12-07T02:38:07.949Z,88.04
2016-12-07T02:39:08.249Z,88.23
2016-12-07T02:40:08.242Z,87.46
2016-12-07T02:42:09.219Z,87.00
2016-12-07T02:43:14.505Z,87.71
2016-12-07T02:44:14.330Z,87.18
2016-12-07T02:45:08.189Z,87.43
2016-12-07T02:47:08.518Z,87.37
2016-12-07T02:48:08.259Z,87.00
2016-12-07T02:49:08.455Z,87.36
2016-12-07T02:50:08.796Z,88.11
2016-12-07T02:51:08.706Z,88.70
2016-12-07T02:52:08.573Z,88.92
2016-12-07T02:53:10.074Z,88.68
2016-12-07T02:55:08.205Z,86.27
2016-12-07T02:56:07.874Z,85.64
2016-12-07T02:57:08.218Z,85.50
2016-12-07T03:00:08.469Z,86.67
2016-12-07T03:01:08.763Z,86.36
2016-12-07T03:02:08.607Z,86.04
2016-12-07T03:03:08.210Z,86.84
2016-12-07T03:04:08.760Z,86.43
2016-12-07T03:05:14.228Z,86.14
2016-12-07T03:07:08.369Z,87.46
2016-12-07T03:08:09.058Z,87.16
2016-12-07T03:09:07.869Z,87.49
2016-12-07T03:10:09.251Z,86.82
2016-12-07T03:11:08.082Z,86.80
2016-12-07T03:12:08.915Z,86.14
2016-12-07T03:14:08.500Z,86.11
2016-12-07T03:15:08.125Z,85.72
2016-12-07T03:17:25.855Z,86.55
2016-12-07T03:21:09.328Z,87.53
2016-12-07T03:23:19.524Z,87.59
2016-12-07T03:25:08.459Z,87.09
2016-12-07T03:27:08.569Z,87.04
2016-12-07T03:28:08.275Z,86.57
2016-12-07T03:34:07.827Z,86.42
2016-12-07T03:35:28.606Z,87.86
2016-12-07T03:37:08.026Z,87.40
2016-12-07T03:38:13.027Z,87.09
2016-12-07T03:39:07.941Z,87.56
2016-12-07T03:40:07.713Z,87.65
2016-12-07T03:41:08.346Z,87.34
2016-12-07T03:44:08.334Z,86.05
2016-12-07T03:45:08.861Z,86.62
2016-12-07T03:46:09.172Z,86.22
2016-12-07T03:47:07.891Z,87.00
2016-12-07T03:48:08.546Z,88.08
2016-12-07T03:49:08.171Z,87.72
2016-12-07T03:50:07.885Z,87.01
2016-12-07T03:51:08.971Z,86.89
2016-12-07T03:53:07.723Z,86.82
2016-12-07T03:54:09.155Z,86.70
2016-12-07T03:55:07.766Z,86.45
2016-12-07T03:56:08.573Z,87.75
2016-12-07T03:57:08.193Z,87.37
2016-12-07T03:58:07.736Z,88.11
2016-12-07T03:59:08.397Z,88.25
2016-12-07T04:00:08.022Z,87.94
2016-12-07T04:01:07.676Z,88.29
2016-12-07T04:02:08.263Z,88.27
2016-12-07T04:03:20.290Z,87.76
2016-12-07T04:04:07.964Z,87.70
2016-12-07T04:05:07.768Z,87.24
2016-12-07T04:06:08.489Z,86.70
2016-12-07T04:08:08.670Z,87.00
2016-12-07T04:09:08.289Z,87.51
2016-12-07T04:10:08.072Z,87.32
2016-12-07T04:11:07.598Z,87.69
2016-12-07T04:12:08.292Z,87.80
2016-12-07T04:15:08.782Z,87.19
2016-12-07T04:16:14.931Z,87.16
2016-12-07T04:17:07.749Z,87.58
2016-12-07T04:18:11.042Z,87.57
2016-12-07T04:19:07.630Z,86.89
2016-12-07T04:20:08.461Z,87.71
2016-12-07T04:24:08.072Z,87.24
2016-12-07T04:25:38.183Z,87.51
2016-12-07T04:26:10.066Z,87.80
2016-12-07T04:27:07.716Z,88.10
2016-12-07T04:29:08.305Z,87.29
2016-12-07T04:30:07.823Z,87.17
2016-12-07T04:34:08.080Z,86.62
2016-12-07T04:35:10.280Z,86.01
2016-12-07T04:39:08.712Z,86.63
2016-12-07T04:40:07.897Z,87.46
2016-12-07T04:41:09.460Z,86.83
2016-12-07T04:42:09.649Z,86.70
2016-12-07T04:43:08.424Z,86.61
2016-12-07T04:44:10.217Z,86.94
2016-12-07T04:45:07.928Z,87.03
2016-12-07T04:48:07.759Z,85.18
2016-12-07T04:50:09.063Z,86.34
2016-12-07T04:51:07.870Z,85.43
2016-12-07T04:54:08.134Z,86.97
2016-12-07T04:55:07.915Z,86.73
2016-12-07T04:58:08.143Z,86.78
2016-12-07T05:05:09.115Z,84.34
2016-12-07T05:06:07.917Z,84.31
2016-12-07T05:08:10.057Z,84.71
2016-12-07T05:14:09.138Z,85.18
2016-12-07T05:16:08.305Z,86.64
2016-12-07T05:18:08.576Z,85.91
2016-12-07T05:19:08.336Z,86.16
2016-12-07T05:28:08.143Z,85.24
2016-12-07T05:29:08.702Z,84.85
2016-12-07T05:33:08.347Z,84.58
2016-12-07T05:34:08.475Z,84.55
2016-12-07T05:39:08.983Z,84.18
2016-12-07T05:40:07.579Z,84.36
2016-12-07T05:41:50.802Z,84.48
2016-12-07T05:42:22.485Z,84.98
2016-12-07T05:43:16.818Z,84.94
2016-12-07T05:44:08.541Z,85.07
2016-12-07T05:45:08.192Z,84.89
2016-12-07T05:46:07.741Z,83.93
2016-12-07T05:47:08.221Z,83.14
2016-12-07T05:48:08.411Z,83.54
2016-12-07T05:49:07.915Z,83.66
2016-12-07T05:50:08.622Z,84.18
2016-12-07T05:51:08.240Z,84.95
2016-12-07T05:52:07.808Z,85.38
2016-12-07T05:55:10.267Z,85.80
2016-12-07T05:57:09.999Z,83.52
2016-12-07T05:58:09.100Z,82.79
2016-12-07T06:01:09.089Z,82.79
2016-12-07T06:02:08.399Z,83.12
2016-12-07T06:03:08.087Z,83.32
2016-12-07T06:04:08.067Z,84.20
2016-12-07T06:05:08.451Z,83.90
2016-12-07T06:06:09.809Z,83.24
2016-12-07T06:07:09.046Z,83.27
2016-12-07T06:08:09.801Z,82.92
2016-12-07T06:11:07.768Z,83.90
2016-12-07T06:12:08.517Z,82.62
2016-12-07T06:13:08.162Z,83.36
2016-12-07T06:14:07.739Z,83.97
2016-12-07T06:15:08.528Z,83.84
2016-12-07T06:16:08.504Z,83.09
2016-12-07T06:17:08.246Z,82.88
2016-12-07T06:18:07.837Z,82.44
2016-12-07T06:19:08.449Z,83.78
2016-12-07T06:20:07.996Z,83.22
2016-12-07T06:21:07.558Z,83.21
2016-12-07T06:22:08.126Z,83.30
2016-12-07T06:23:07.641Z,84.35
2016-12-07T06:24:08.216Z,84.48
2016-12-07T06:25:07.678Z,84.35
2016-12-07T06:26:08.231Z,84.53
2016-12-07T06:27:07.755Z,85.28
2016-12-07T06:28:08.404Z,85.07
2016-12-07T06:29:07.935Z,83.98
2016-12-07T06:30:07.556Z,84.37
2016-12-07T06:31:08.172Z,83.97
2016-12-07T06:32:07.723Z,83.35
2016-12-07T06:33:08.342Z,83.74
2016-12-07T06:34:08.041Z,83.79
2016-12-07T06:35:07.616Z,84.07
2016-12-07T06:36:08.213Z,84.22
2016-12-07T06:37:07.782Z,83.18
2016-12-07T06:38:08.431Z,84.67
2016-12-07T06:39:08.040Z,84.73
2016-12-07T06:40:07.587Z,84.41
2016-12-07T06:41:08.099Z,84.10
2016-12-07T06:42:08.531Z,83.82
2016-12-07T06:43:08.113Z,83.33
2016-12-07T06:44:07.608Z,83.41
2016-12-07T06:45:08.133Z,83.70
2016-12-07T06:46:08.576Z,84.31
2016-12-07T06:47:08.267Z,84.26
2016-12-07T06:48:07.803Z,84.74
2016-12-07T06:49:08.375Z,84.57
2016-12-07T06:50:08.114Z,85.27
2016-12-07T06:51:07.655Z,85.41
2016-12-07T06:52:08.254Z,85.24
2016-12-07T06:53:07.777Z,84.83
2016-12-07T06:54:08.361Z,84.06
2016-12-07T06:55:07.886Z,83.30
2016-12-07T06:56:08.542Z,82.80
2016-12-07T06:57:08.141Z,82.59
2016-12-07T06:58:07.609Z,82.66
2016-12-07T06:59:08.257Z,82.02
2016-12-07T07:00:07.785Z,82.02
2016-12-07T07:01:08.354Z,82.65
2016-12-07T07:02:08.001Z,82.91
2016-12-07T07:03:07.512Z,82.53
2016-12-07T07:04:08.086Z,82.61
2016-12-07T07:05:07.563Z,81.99
2016-12-07T07:06:08.123Z,82.23
2016-12-07T07:07:07.677Z,82.27
2016-12-07T07:08:08.241Z,81.83
2016-12-07T07:09:07.772Z,82.15
2016-12-07T07:10:08.538Z,82.10
2016-12-07T07:11:09.181Z,82.13
2016-12-07T07:12:07.923Z,82.62
2016-12-07T07:13:07.949Z,82.98
2016-12-07T07:14:07.448Z,82.57
2016-12-07T07:15:09.566Z,82.03
2016-12-07T07:16:08.096Z,82.18
2016-12-07T07:17:07.819Z,81.07
2016-12-07T07:18:08.396Z,81.27
2016-12-07T07:19:07.984Z,82.64
2016-12-07T07:20:07.422Z,83.08
2016-12-07T07:21:08.011Z,83.13
2016-12-07T07:22:07.582Z,82.44
2016-12-07T07:23:08.176Z,81.84
2016-12-07T07:24:07.744Z,81.55
2016-12-07T07:25:08.318Z,81.85
2016-12-07T07:26:07.884Z,81.55
2016-12-07T07:27:08.607Z,81.69
2016-12-07T07:28:08.240Z,82.19
2016-12-07T07:29:08.035Z,81.66
2016-12-07T07:30:07.589Z,80.90
2016-12-07T07:31:08.182Z,80.96
2016-12-07T07:32:07.767Z,80.19
2016-12-07T07:33:08.410Z,79.79
2016-12-07T07:34:08.057Z,79.72
2016-12-07T07:35:07.620Z,78.85
2016-12-07T07:36:08.097Z,79.80
2016-12-07T07:37:09.211Z,79.24
2016-12-07T07:38:09.101Z,79.15
2016-12-07T07:39:07.740Z,78.80
2016-12-07T07:40:08.341Z,78.45
2016-12-07T07:41:07.899Z,78.65
2016-12-07T07:42:08.565Z,78.86
2016-12-07T07:43:08.200Z,79.65
2016-12-07T07:44:07.722Z,79.04
2016-12-07T07:45:08.339Z,79.15
2016-12-07T07:46:07.832Z,79.01
2016-12-07T07:47:08.421Z,79.64
2016-12-07T07:48:08.002Z,79.71
2016-12-07T07:49:07.582Z,78.47
2016-12-07T07:50:08.221Z,78.76
2016-12-07T07:51:07.847Z,78.11
2016-12-07T07:52:15.000Z,78.60
2016-12-07T07:53:07.464Z,80.60
2016-12-07T07:54:08.189Z,79.67
2016-12-07T07:55:07.671Z,79.32
2016-12-07T07:56:09.013Z,78.97
2016-12-07T07:57:07.579Z,78.83
2016-12-07T07:58:08.150Z,79.08
2016-12-07T07:59:07.782Z,79.66
2016-12-07T08:00:08.387Z,80.25
2016-12-07T08:01:07.992Z,78.92
2016-12-07T08:02:07.585Z,78.65
2016-12-07T08:03:08.193Z,78.34
2016-12-07T08:04:07.774Z,80.35
2016-12-07T08:05:08.428Z,79.96
2016-12-07T08:06:08.049Z,80.46
2016-12-07T08:07:07.599Z,79.17
2016-12-07T08:08:09.058Z,80.00
2016-12-07T08:09:08.384Z,79.66
2016-12-07T08:10:07.892Z,79.27
2016-12-07T08:11:08.503Z,79.42
2016-12-07T08:12:08.082Z,79.23
2016-12-07T08:13:07.641Z,79.22
2016-12-07T08:14:08.320Z,80.21
2016-12-07T08:15:07.918Z,79.59
2016-12-07T08:16:09.004Z,79.74
2016-12-07T08:17:07.657Z,78.95
2016-12-07T08:18:08.311Z,79.02
2016-12-07T08:19:07.865Z,79.18
2016-12-07T08:20:08.400Z,79.02
2016-12-07T08:21:07.998Z,79.87
2016-12-07T08:22:07.546Z,79.29
2016-12-07T08:23:08.104Z,78.96
2016-12-07T08:24:07.761Z,79.24
2016-12-07T08:25:08.416Z,79.54
2016-12-07T08:26:07.999Z,79.71
2016-12-07T08:27:07.519Z,79.99
2016-12-07T08:28:13.912Z,80.33
2016-12-07T08:29:14.091Z,79.89
2016-12-07T08:30:07.580Z,78.64
2016-12-07T08:31:13.777Z,79.15
2016-12-07T08:32:08.264Z,77.60
2016-12-07T08:33:07.533Z,77.71
2016-12-07T08:34:08.259Z,79.63
2016-12-07T08:35:07.759Z,79.73
2016-12-07T08:36:08.394Z,79.50
2016-12-07T08:37:07.947Z,78.74
2016-12-07T08:38:07.453Z,78.59
2016-12-07T08:39:08.904Z,78.03
2016-12-07T08:40:08.542Z,78.47
2016-12-07T08:41:08.131Z,79.02
2016-12-07T08:42:07.704Z,78.50
2016-12-07T08:43:08.293Z,78.63
2016-12-07T08:44:07.853Z,79.73
2016-12-07T08:45:08.515Z,79.43
2016-12-07T08:46:08.106Z,79.78
2016-12-07T08:47:07.665Z,80.06
2016-12-07T08:48:08.254Z,79.61
2016-12-07T08:49:07.766Z,79.55
2016-12-07T08:50:08.369Z,80.88
2016-12-07T08:51:07.846Z,80.81
2016-12-07T08:52:08.513Z,80.89
2016-12-07T08:53:08.099Z,80.26
2016-12-07T08:54:07.571Z,79.65
2016-12-07T08:55:08.154Z,80.36
2016-12-07T08:56:07.764Z,80.51
2016-12-07T08:57:08.318Z,80.26
2016-12-07T08:58:07.845Z,80.45
2016-12-07T08:59:08.496Z,80.54
2016-12-07T09:00:08.067Z,80.78
2016-12-07T09:01:07.646Z,80.82
2016-12-07T09:02:08.259Z,79.61
2016-12-07T09:03:07.808Z,79.86
2016-12-07T09:04:08.422Z,80.48
2016-12-07T09:05:07.970Z,79.40
2016-12-07T09:06:07.438Z,79.41
2016-12-07T09:07:08.000Z,80.25
2016-12-07T09:08:07.485Z,80.37
2016-12-07T09:09:08.011Z,80.59
2016-12-07T09:10:07.585Z,80.64
2016-12-07T09:11:08.154Z,80.53
2016-12-07T09:12:07.815Z,79.88
2016-12-07T09:13:08.476Z,80.69
2016-12-07T09:14:08.166Z,80.64
2016-12-07T09:15:07.706Z,80.43
2016-12-07T09:16:08.398Z,79.96
2016-12-07T09:17:08.066Z,79.79
2016-12-07T09:18:07.602Z,79.93
2016-12-07T09:19:08.289Z,79.56
2016-12-07T09:20:07.878Z,80.18
2016-12-07T09:21:08.444Z,79.81
2016-12-07T09:22:07.967Z,79.21
2016-12-07T09:23:07.509Z,79.70
2016-12-07T09:24:08.151Z,79.73
2016-12-07T09:25:07.788Z,79.47
2016-12-07T09:26:08.414Z,80.32
2016-12-07T09:27:07.885Z,79.23
2016-12-07T09:28:07.832Z,79.93
2016-12-07T09:29:08.500Z,80.40
2016-12-07T09:30:08.084Z,79.63
2016-12-07T09:31:08.531Z,79.95
2016-12-07T09:32:08.101Z,80.02
2016-12-07T09:33:07.641Z,79.14
2016-12-07T09:34:08.235Z,78.93
2016-12-07T09:35:07.802Z,77.72
2016-12-07T09:36:08.421Z,78.08
2016-12-07T09:37:08.003Z,77.58
2016-12-07T09:38:07.581Z,78.71
2016-12-07T09:39:08.203Z,78.02
2016-12-07T09:40:07.760Z,78.28
2016-12-07T09:41:08.309Z,77.54
2016-12-07T09:42:07.905Z,78.01
2016-12-07T09:43:08.572Z,77.79
2016-12-07T09:44:08.233Z,77.78
2016-12-07T09:45:07.871Z,77.59
2016-12-07T09:46:08.479Z,77.97
2016-12-07T09:47:08.124Z,78.13
2016-12-07T09:48:07.670Z,78.17
2016-12-07T09:49:08.250Z,78.22
2016-12-07T09:50:07.894Z,79.43
2016-12-07T09:51:08.556Z,78.96
2016-12-07T09:52:08.111Z,78.59
2016-12-07T09:53:07.833Z,77.78
2016-12-07T09:54:08.398Z,78.45
2016-12-07T09:55:08.132Z,78.07
2016-12-07T09:56:07.712Z,78.23
2016-12-07T09:57:08.311Z,77.84
2016-12-07T09:58:07.814Z,78.31
2016-12-07T09:59:08.381Z,78.19
2016-12-07T10:00:07.942Z,77.16
2016-12-07T10:01:07.409Z,77.78
2016-12-07T10:02:07.967Z,77.72
2016-12-07T10:03:07.505Z,77.91
2016-12-07T10:04:08.109Z,78.37
2016-12-07T10:05:07.670Z,78.16
2016-12-07T10:06:08.255Z,78.80
2016-12-07T10:07:07.782Z,77.75
2016-12-07T10:08:08.473Z,79.24
2016-12-07T10:09:07.983Z,79.47
2016-12-07T10:10:07.908Z,79.05
2016-12-07T10:11:08.420Z,77.83
2016-12-07T10:12:07.945Z,79.19
2016-12-07T10:13:07.515Z,79.52
2016-12-07T10:14:08.237Z,79.30
2016-12-07T10:15:07.888Z,78.39
2016-12-07T10:16:08.680Z,79.06
2016-12-07T10:17:08.371Z,78.31
2016-12-07T10:18:07.865Z,78.30
2016-12-07T10:19:08.504Z,78.34
2016-12-07T10:20:07.974Z,78.66
2016-12-07T10:21:08.184Z,78.37
2016-12-07T10:22:07.779Z,78.79
2016-12-07T10:23:08.326Z,78.79
2016-12-07T10:24:07.926Z,78.81
2016-12-07T10:25:08.632Z,78.54
2016-12-07T10:26:08.242Z,78.79
2016-12-07T10:27:18.325Z,78.99
2016-12-07T10:28:07.975Z,78.87
2016-12-07T10:29:07.545Z,79.68
2016-12-07T10:30:08.251Z,78.07
2016-12-07T10:31:07.746Z,78.64
2016-12-07T10:32:08.328Z,78.29
2016-12-07T10:33:07.872Z,77.45
2016-12-07T10:34:08.567Z,77.40
2016-12-07T10:35:08.232Z,77.52
2016-12-07T10:37:08.303Z,78.48
2016-12-07T10:38:07.941Z,77.67
2016-12-07T10:39:07.472Z,77.80
2016-12-07T10:40:08.867Z,77.82
2016-12-07T10:41:08.470Z,77.29
2016-12-07T10:42:08.036Z,76.86
2016-12-07T10:43:07.541Z,76.64
2016-12-07T10:44:09.013Z,76.63
2016-12-07T10:45:07.645Z,77.17
2016-12-07T10:46:08.235Z,76.52
2016-12-07T10:47:07.786Z,76.37
2016-12-07T10:48:08.370Z,76.24
2016-12-07T10:49:07.988Z,77.06
2016-12-07T10:50:13.212Z,77.03
2016-12-07T10:51:07.825Z,75.98
2016-12-07T10:52:08.513Z,76.16
2016-12-07T10:53:08.141Z,76.18
2016-12-07T10:54:07.660Z,76.60
2016-12-07T10:55:08.294Z,76.38
2016-12-07T10:56:07.787Z,76.15
2016-12-07T10:57:08.369Z,75.80
2016-12-07T10:58:07.971Z,76.72
2016-12-07T10:59:07.745Z,77.17
2016-12-07T11:00:08.413Z,77.02
2016-12-07T11:01:08.026Z,76.69
2016-12-07T11:02:07.518Z,77.74
2016-12-07T11:03:08.224Z,76.83
2016-12-07T11:04:07.784Z,77.64
2016-12-07T11:05:08.736Z,77.52
2016-12-07T11:06:08.341Z,77.18
2016-12-07T11:07:07.918Z,77.07
2016-12-07T11:08:08.562Z,76.60
2016-12-07T11:09:08.270Z,76.43
2016-12-07T11:10:08.260Z,76.42
2016-12-07T11:11:07.739Z,76.64
2016-12-07T11:12:08.183Z,76.31
2016-12-07T11:13:07.755Z,76.36
2016-12-07T11:14:08.401Z,76.37
2016-12-07T11:15:07.935Z,75.89
2016-12-07T11:16:08.565Z,76.38
2016-12-07T11:17:08.341Z,76.12
2016-12-07T11:18:07.985Z,76.17
2016-12-07T11:19:07.547Z,75.91
2016-12-07T11:20:08.996Z,76.06
2016-12-07T11:21:08.022Z,75.95
2016-12-07T11:22:07.557Z,75.69
2016-12-07T11:23:08.116Z,75.95
2016-12-07T11:24:07.736Z,76.85
2016-12-07T11:25:08.390Z,76.99
2016-12-07T11:26:07.911Z,76.62
2016-12-07T11:27:08.494Z,75.98
2016-12-07T11:28:08.060Z,76.54
2016-12-07T11:29:07.583Z,76.28
2016-12-07T11:30:08.205Z,75.75
2016-12-07T11:31:07.803Z,76.39
2016-12-07T11:32:09.235Z,76.51
2016-12-07T11:33:07.847Z,76.61
2016-12-07T11:34:08.463Z,76.21
2016-12-07T11:35:08.127Z,75.60
2016-12-07T11:36:07.757Z,76.14
2016-12-07T11:37:08.412Z,76.37
2016-12-07T11:38:08.096Z,76.00
2016-12-07T11:39:07.695Z,76.48
2016-12-07T11:40:08.409Z,76.58
2016-12-07T11:41:07.915Z,76.78
2016-12-07T11:42:08.521Z,77.06
2016-12-07T11:43:08.123Z,76.51
2016-12-07T11:44:07.679Z,76.47
2016-12-07T11:45:08.416Z,76.48
2016-12-07T11:46:08.109Z,75.60
2016-12-07T11:47:07.654Z,76.31
2016-12-07T11:48:08.306Z,76.31
2016-12-07T11:49:07.897Z,76.11
2016-12-07T11:50:08.536Z,76.35
2016-12-07T11:51:08.132Z,76.34
2016-12-07T11:52:07.743Z,76.46
2016-12-07T11:53:08.330Z,76.83
2016-12-07T11:54:07.905Z,76.70
2016-12-07T11:55:08.557Z,76.07
2016-12-07T11:56:08.119Z,76.14
2016-12-07T11:57:07.717Z,75.82
2016-12-07T11:58:08.235Z,75.56
2016-12-07T11:59:08.148Z,76.56
2016-12-07T12:00:07.644Z,76.31
2016-12-07T12:01:07.562Z,76.21
2016-12-07T12:02:08.162Z,75.90
2016-12-07T12:03:07.749Z,75.72
2016-12-07T12:04:08.316Z,76.29
2016-12-07T12:05:07.903Z,75.74
2016-12-07T12:06:08.456Z,76.57
2016-12-07T12:07:08.046Z,75.94
2016-12-07T12:08:07.595Z,75.78
2016-12-07T12:09:08.269Z,75.89
2016-12-07T12:10:07.840Z,75.56
2016-12-07T12:11:08.463Z,75.52
2016-12-07T12:12:07.957Z,75.51
2016-12-07T12:13:07.531Z,75.57
2016-12-07T12:14:19.124Z,75.49
2016-12-07T12:15:07.735Z,75.58
2016-12-07T12:16:08.837Z,74.90
2016-12-07T12:17:08.654Z,74.99
2016-12-07T12:18:08.243Z,74.13
2016-12-07T12:19:07.819Z,74.55
2016-12-07T12:20:08.445Z,74.03
2016-12-07T12:21:08.037Z,73.52
2016-12-07T12:22:07.579Z,73.14
2016-12-07T12:23:08.234Z,73.23
2016-12-07T12:24:07.800Z,73.95
2016-12-07T12:25:08.814Z,73.84
2016-12-07T12:26:08.334Z,73.88
2016-12-07T12:27:07.836Z,74.13
2016-12-07T12:28:08.474Z,74.08
2016-12-07T12:29:08.075Z,73.67
2016-12-07T12:30:08.690Z,73.04
2016-12-07T12:31:08.342Z,73.45
2016-12-07T12:32:07.919Z,72.90
2016-12-07T12:33:08.501Z,72.88
2016-12-07T12:34:08.082Z,72.74
2016-12-07T12:35:07.670Z,72.97
2016-12-07T12:36:08.645Z,73.17
2016-12-07T12:37:08.374Z,73.15
2016-12-07T12:38:07.914Z,73.54
2016-12-07T12:39:08.661Z,74.03
2016-12-07T12:40:08.274Z,74.38
2016-12-07T12:41:08.710Z,74.27
2016-12-07T12:42:08.302Z,74.61
2016-12-07T12:43:07.980Z,74.30
2016-12-07T12:44:07.638Z,74.12
2016-12-07T12:45:08.284Z,74.11
2016-12-07T12:46:07.793Z,74.35
2016-12-07T12:47:08.906Z,74.32
2016-12-07T12:48:08.621Z,74.00
2016-12-07T12:49:08.354Z,73.96
2016-12-07T12:50:07.951Z,73.65
2016-12-07T12:51:07.436Z,74.03
2016-12-07T12:52:08.061Z,74.06
2016-12-07T12:53:07.715Z,74.66
2016-12-07T12:54:08.379Z,74.12
2016-12-07T12:55:07.957Z,73.18
2016-12-07T12:56:07.406Z,73.76
2016-12-07T12:57:07.915Z,74.04
2016-12-07T12:58:08.589Z,73.40
2016-12-07T12:59:08.305Z,73.08
2016-12-07T13:00:07.853Z,73.08
2016-12-07T13:01:08.446Z,72.96
2016-12-07T13:02:07.995Z,72.40
2016-12-07T13:03:07.486Z,72.37
2016-12-07T13:04:08.041Z,73.37
2016-12-07T13:05:07.533Z,72.32
2016-12-07T13:06:08.122Z,73.32
2016-12-07T13:07:07.699Z,73.07
2016-12-07T13:08:08.353Z,72.85
2016-12-07T13:09:07.891Z,72.67
2016-12-07T13:10:08.461Z,72.64
2016-12-07T13:11:07.988Z,73.47
2016-12-07T13:12:07.444Z,72.88
2016-12-07T13:13:08.039Z,72.17
2016-12-07T13:14:07.633Z,72.42
2016-12-07T13:15:08.292Z,71.51
2016-12-07T13:16:07.851Z,71.30
2016-12-07T13:17:08.540Z,71.19
2016-12-07T13:18:08.171Z,70.85
2016-12-07T13:19:07.768Z,70.69
2016-12-07T13:20:08.407Z,70.16
2016-12-07T13:21:08.023Z,70.95
2016-12-07T13:22:07.564Z,70.69
2016-12-07T13:23:08.222Z,70.00
2016-12-07T13:24:07.810Z,69.19
2016-12-07T13:25:08.452Z,69.29
2016-12-07T13:26:07.962Z,69.55
2016-12-07T13:27:08.071Z,69.35
2016-12-07T13:28:07.561Z,69.35
2016-12-07T13:29:08.154Z,69.27
2016-12-07T13:30:07.687Z,68.95
2016-12-07T13:31:08.278Z,68.95
2016-12-07T13:32:07.861Z,68.92
2016-12-07T13:33:08.541Z,68.67
2016-12-07T13:34:08.221Z,68.64
2016-12-07T13:35:08.035Z,67.92
2016-12-07T13:36:07.610Z,68.07
2016-12-07T13:37:08.243Z,67.98
2016-12-07T13:38:07.771Z,68.58
2016-12-07T13:39:08.451Z,68.03
2016-12-07T13:40:08.391Z,67.76
2016-12-07T13:41:08.232Z,67.74
2016-12-07T13:42:08.079Z,68.58
2016-12-07T13:43:07.881Z,68.43
2016-12-07T13:44:08.067Z,68.76
2016-12-07T13:45:08.012Z,68.80
2016-12-07T13:46:08.147Z,69.13
2016-12-07T13:47:07.703Z,69.26
2016-12-07T13:48:07.879Z,69.65
2016-12-07T13:49:08.471Z,69.48
2016-12-07T13:50:08.166Z,69.86
2016-12-07T13:51:08.382Z,69.98
2016-12-07T13:52:07.989Z,69.50
2016-12-07T13:53:07.850Z,69.70
2016-12-07T13:54:08.376Z,69.68
2016-12-07T13:55:07.979Z,70.21
2016-12-07T13:56:07.457Z,69.85
2016-12-07T13:57:08.072Z,70.56
2016-12-07T13:58:07.471Z,71.11
2016-12-07T13:59:07.958Z,71.21
2016-12-07T14:00:08.020Z,71.08
2016-12-07T14:01:07.738Z,71.38
2016-12-07T14:02:08.463Z,72.93
2016-12-07T14:03:07.916Z,73.09
2016-12-07T14:04:08.781Z,74.14
2016-12-07T14:05:07.632Z,73.93
2016-12-07T14:06:08.159Z,73.88
2016-12-07T14:07:07.682Z,74.22
2016-12-07T14:08:07.698Z,74.67
2016-12-07T14:09:08.359Z,74.71
2016-12-07T14:10:08.371Z,74.73
2016-12-07T14:11:08.328Z,75.67
2016-12-07T14:12:08.204Z,75.70
2016-12-07T14:13:08.838Z,75.78
2016-12-07T14:14:08.054Z,76.18
2016-12-07T14:15:07.642Z,76.11
2016-12-07T14:16:08.332Z,76.36
2016-12-07T14:17:08.218Z,76.89
2016-12-07T14:18:07.949Z,77.08
2016-12-07T14:19:07.720Z,76.73
2016-12-07T14:20:08.147Z,77.62
2016-12-07T14:21:08.178Z,77.93
2016-12-07T14:22:08.066Z,78.08
2016-12-07T14:23:07.890Z,78.36
2016-12-07T14:24:08.419Z,78.70
2016-12-07T14:25:08.056Z,79.16
2016-12-07T14:26:07.596Z,79.76
2016-12-07T14:27:08.133Z,80.02
2016-12-07T14:28:08.357Z,80.33
2016-12-07T14:29:08.565Z,80.18
2016-12-07T14:30:08.273Z,80.21
2016-12-07T14:31:07.843Z,81.13
2016-12-07T14:32:08.385Z,82.08
2016-12-07T14:33:07.459Z,82.28
2016-12-07T14:34:07.628Z,82.43
2016-12-07T14:35:08.315Z,82.38
2016-12-07T14:36:07.863Z,82.81
2016-12-07T14:37:08.568Z,83.01
2016-12-07T14:38:08.106Z,82.46
2016-12-07T14:39:08.024Z,82.54
2016-12-07T14:40:08.374Z,82.88
2016-12-07T14:41:07.847Z,83.39
2016-12-07T14:42:07.723Z,83.67
2016-12-07T14:43:08.425Z,83.07
2016-12-07T14:44:09.048Z,84.37
2016-12-07T14:45:07.908Z,84.27
2016-12-07T14:46:08.574Z,84.47
2016-12-07T14:47:08.095Z,84.89
2016-12-07T14:48:07.663Z,85.23
2016-12-07T14:49:08.395Z,84.89
2016-12-07T14:50:08.027Z,84.62
2016-12-07T14:51:08.446Z,84.84
2016-12-07T14:52:14.685Z,85.32
2016-12-07T14:53:08.165Z,84.98
2016-12-07T14:54:08.459Z,84.78
2016-12-07T14:55:08.082Z,85.15
2016-12-07T14:56:08.335Z,85.95
2016-12-07T14:57:08.478Z,86.65
2016-12-07T14:58:08.200Z,86.11
2016-12-07T14:59:08.881Z,86.09
2016-12-07T15:00:14.225Z,85.97
2016-12-07T15:01:07.763Z,85.67
2016-12-07T15:02:08.468Z,87.03
2016-12-07T15:03:08.017Z,87.23
2016-12-07T15:04:07.508Z,86.34